Main page
METAR-TAF:

METAR-TAF

Airports :

Hasvik Airport

Hasvik, Norway

latitude: 70-29N, longitude: 022-09E, elevation: 10 m

Current weather observation

The report was made 32 minutes ago, at 16:20 UTC
Wind 3 kt from variable directions
Temperature 25°C
Humidity 54%
Pressure 1010 hPa
Visibility 10 km or more

METAR: ENHK 231620Z AUTO VRB03KT 9999 NCD 25/15 Q1010

Time: 18:52 (16:52 UTC)

Forecast

The report was made 5 hours and 52 minutes ago, at 11:00 UTC
Forecast valid from 23 at 12 UTC to 23 at 19 UTC
Wind 5 kt from the East
Visibility 10 km or more
Few clouds at a height of 5000 ft
Probability 40% :
Temporary
from 23 at 15 UTC to 23 at 19 UTC
Few clouds at a height of 5000 ft, Cumulonimbus.

TAF: ENHK 231100Z 2312/2319 09005KT 9999 FEW050 PROB40 TEMPO 2315/2319 FEW050CB

Weather observations and forecasts of more than 4000 airports (METAR and TAF reports).

The available stations are represented by yellow and red dots on the map.

Hover mouse over dot to see the name of the station.

Then click to see weather observations and forecasts.

To change the map : click on the green buttons with a black cross to zoom in, on the green button with a dash to zoom out, or on the green arrows for adjacent maps.


METAR-TAF: